Estación Meteorológica Peña el Pijo (Robertgarden) [ 07/20/18 16:44:48 CEST ]

Fecha Hora Presion(HPa) Temp (°C) Humedad % Rocio (°C) Viento ( m/s) Direccion Lluvia 1Hora(mm) Lluvia 24H(mm) LLuvia Total(mm)
2018-Mar-07 01:01:44 994.800 3.6 85 1.3 1.5 WNW 0.51 3.62 119.14
2018-Mar-07 02:03:14 995.100 3.4 85 1.1       3.62 119.14
2018-Mar-07 03:01:38 995.100 2.6 85 0.3       3.62 119.14
2018-Mar-07 04:01:43 995.300 2.4 84 -0.1       3.62 119.14
2018-Mar-07 05:01:56 995.600 2.5 82 -0.3       3.62 119.14
2018-Mar-07 06:01:41 996.700 2.4 81 -0.5       3.62 119.14
2018-Mar-07 07:01:55 997.600 2.1 80 -1.0       3.62 119.14
2018-Mar-07 08:01:50 998.300 0.5 82 -2.2       3.62 119.14
2018-Mar-07 09:01:49 999.700 4.9 82 2.0       3.62 119.14
2018-Mar-07 10:01:42 1000.700 6.8 69 1.5       3.62 119.14
2018-Mar-07 11:01:49 1001.200 8.6 58 0.8       3.62 119.14
2018-Mar-07 12:01:46 1001.600 10.3 52 0.9       3.62 119.14
2018-Mar-07 13:01:32 1001.300 10.7 47 -0.2       3.62 119.14
2018-Mar-07 14:01:46 1001.000 12.5 39 -1.1 1.5 NNE   3.62 119.14
2018-Mar-07 15:01:43 1000.200 12.9 36 -1.9       3.62 119.14
2018-Mar-07 16:01:36 1000.100 13.8 39 0.0       3.62 119.14
2018-Mar-07 17:01:34 999.600 13.6 41 0.6       3.10 119.14
2018-Mar-07 18:01:34 999.800 10.4 45 -1.1       2.07 119.14
2018-Mar-07 19:01:34 999.700 8.1 54 -0.7       2.07 119.14
2018-Mar-07 20:01:49 1000.200 6.4 63 -0.2       1.55 119.14
2018-Mar-07 21:01:53 1000.100 5.9 65 -0.2       1.03 119.14
2018-Mar-07 22:01:39 1000.000 5.5 68 0.1       1.03 119.14
2018-Mar-07 23:01:36 999.500 5.6 70 0.6       0.51 119.14

Temperatura Máxima:13°    Temperatura Mínima:
Presión Máxima:1001.600 Hpa    Presión Mínima:994.800 Hpa


Volver